Time;durP1;ratioP1;P1;durP2;ratioP2;P2;SDS_P1;SDS_P2;PMS_P1;PMS_P2;Temp;Humidity;BMP_temperature;BMP_pressure;BME280_temperature;BME280_humidity;BME280_pressure;Samples;Min_cycle;Max_cycle;Signal;HPM_P1;HPM_P2
2023/03/02 00:01:09;;;;;;;;;;;;;;;;;;2215157;66;1949;-16
2023/03/02 00:03:40;;;;;;;;;;;;;;;;;;2216064;66;1524;-16
2023/03/02 00:06:10;;;;;;;;;;;;;;;;;;2216956;66;1121;-16
2023/03/02 00:08:40;;;;;;;;;;;;;;;;;;2216516;66;1106;-16
2023/03/02 00:11:14;;;;;;;;;;;;;;;;;;2215521;59;1253;-16
2023/03/02 00:13:44;;;;;;;;;;;;;;;;;;2217242;66;1412;-16
2023/03/02 00:16:15;;;;;;;;;;;;;;;;;;2217706;66;1570;-16
2023/03/02 00:18:45;;;;;;;;;;;;;;;;;;2216287;66;1257;-16
2023/03/02 00:21:15;;;;;;;;;;;;;;;;;;2216658;66;2001;-16
2023/03/02 00:23:46;;;;;;;;;;;;;;;;;;2216278;66;1262;-16
2023/03/02 00:26:16;;;;;;;;;;;;;;;;;;2216416;66;1715;-16
2023/03/02 00:28:46;;;;;;;;;;;;;;;;;;2216321;59;1102;-16
2023/03/02 00:31:17;;;;;;;;;;;;;;;;;;2215009;66;1377;-16
2023/03/02 00:33:47;;;;;;;;;;;;;;;;;;2216046;66;1146;-16
2023/03/02 00:36:19;;;;;;;;;;;;;;;;;;2216622;66;1194;-16
2023/03/02 00:38:53;;;;;;;;;;;;;;;;;;2216791;66;1629;-16
2023/03/02 00:41:23;;;;;;;;;;;;;;;;;;2215282;66;1184;-16
2023/03/02 00:43:54;;;;;;;;;;;;;;;;;;2213924;66;1272;-16
2023/03/02 00:46:24;;;;;;;;;;;;;;;;;;2217356;66;1274;-16
2023/03/02 00:48:54;;;;;;;;;;;;;;;;;;2216573;66;1876;-16
2023/03/02 00:51:25;;;;;;;;;;;;;;;;;;2215695;66;2149;-16
2023/03/02 00:53:55;;;;;;;;;;;;;;;;;;2219404;66;1392;-16
2023/03/02 00:56:25;;;;;;;;;;;;;;;;;;2216851;66;1087;-16
2023/03/02 00:58:55;;;;;;;;;;;;;;;;;;2215216;66;1948;-16
2023/03/02 01:01:26;;;;;;;;;;;;;;;;;;2215876;66;1278;-16
2023/03/02 01:03:56;;;;;;;;;;;;;;;;;;2216562;66;1679;-16
2023/03/02 01:06:26;;;;;;;;;;;;;;;;;;2217388;66;1307;-17
2023/03/02 01:08:56;;;;;;;;;;;;;;;;;;2216505;59;1350;-16
2023/03/02 01:11:27;;;;;;;;;;;;;;;;;;2215572;59;1321;-16
2023/03/02 01:13:58;;;;;;;;;;;;;;;;;;2219970;59;1151;-16
2023/03/02 01:16:28;;;;;;;;;;;;;;;;;;2216334;66;1259;-16
2023/03/02 01:18:59;;;;;;;;;;;;;;;;;;2216335;66;1917;-16
2023/03/02 01:21:29;;;;;;;;;;;;;;;;;;2215300;67;1280;-16
2023/03/02 01:23:59;;;;;;;;;;;;;;;;;;2216683;66;1363;-16
2023/03/02 01:26:30;;;;;;;;;;;;;;;;;;2216888;66;1183;-16
2023/03/02 01:29:03;;;;;;;;;;;;;;;;;;2215458;59;1303;-16
2023/03/02 01:31:33;;;;;;;;;;;;;;;;;;2215343;66;1249;-16
2023/03/02 01:34:04;;;;;;;;;;;;;;;;;;2216231;66;1613;-16
2023/03/02 01:36:34;;;;;;;;;;;;;;;;;;2217878;66;1725;-16
2023/03/02 01:39:04;;;;;;;;;;;;;;;;;;2216806;66;1917;-16
2023/03/02 01:41:34;;;;;;;;;;;;;;;;;;2216007;66;1139;-16
2023/03/02 01:44:04;;;;;;;;;;;;;;;;;;2216542;59;2041;-16
2023/03/02 01:46:35;;;;;;;;;;;;;;;;;;2215811;66;1608;-16
2023/03/02 01:49:11;;;;;;;;;;;;;;;;;;2217512;66;1198;-16
2023/03/02 01:51:44;;;;;;;;;;;;;;;;;;2215325;66;1490;-16
2023/03/02 01:54:21;;;;;;;;;;;;;;;;;;2219502;66;1235;-16
2023/03/02 01:56:54;;;;;;;;;;;;;;;;;;2216522;66;1327;-16
2023/03/02 01:59:25;;;;;;;;;;;;;;;;;;2215207;66;1938;-16
2023/03/02 02:01:56;;;;;;;;;;;;;;;;;;2215011;59;2064;-16
2023/03/02 02:04:29;;;;;;;;;;;;;;;;;;2215353;66;1547;-16
2023/03/02 02:07:04;;;;;;;;;;;;;;;;;;2215441;66;1343;-16
2023/03/02 02:09:40;;;;;;;;;;;;;;;;;;2215197;66;1457;-16
2023/03/02 02:12:12;;;;;;;;;;;;;;;;;;2215873;66;1101;-16
2023/03/02 02:14:43;;;;;;;;;;;;;;;;;;2216752;66;1280;-16
2023/03/02 02:17:14;;;;;;;;;;;;;;;;;;2216322;66;1596;-16
2023/03/02 02:19:50;;;;;;;;;;;;;;;;;;2215055;66;2529;-16
2023/03/02 02:22:39;;;;;;;;;;;;;;;;;;2215859;66;1787;-16
2023/03/02 02:25:19;;;;;;;;;;;;;;;;;;2216819;59;2197;-16
2023/03/02 02:27:50;;;;;;;;;;;;;;;;;;2216661;66;1582;-16
2023/03/02 02:30:21;;;;;;;;;;;;;;;;;;2216033;66;1434;-16
2023/03/02 02:32:53;;;;;;;;;;;;;;;;;;2215631;66;1370;-16
2023/03/02 02:35:26;;;;;;;;;;;;;;;;;;2216986;66;1513;-16
2023/03/02 02:38:00;;;;;;;;;;;;;;;;;;2217376;66;1604;-16
2023/03/02 02:40:39;;;;;;;;;;;;;;;;;;2214714;66;1933;-16
2023/03/02 02:43:14;;;;;;;;;;;;;;;;;;2212314;59;1249;-16
2023/03/02 02:45:46;;;;;;;;;;;;;;;;;;2216996;66;1762;-17
2023/03/02 02:48:22;;;;;;;;;;;;;;;;;;2216014;66;1285;-16
2023/03/02 02:50:59;;;;;;;;;;;;;;;;;;2216225;66;1749;-16
2023/03/02 02:53:36;;;;;;;;;;;;;;;;;;2216426;66;1350;-17
2023/03/02 02:56:07;;;;;;;;;;;;;;;;;;2217686;66;1134;-16
2023/03/02 02:58:46;;;;;;;;;;;;;;;;;;2215002;67;1982;-16
2023/03/02 03:01:24;;;;;;;;;;;;;;;;;;2216352;66;1912;-16
2023/03/02 03:03:56;;;;;;;;;;;;;;;;;;2216456;66;1385;-16
2023/03/02 03:06:36;;;;;;;;;;;;;;;;;;2219239;66;1847;-16
2023/03/02 03:09:08;;;;;;;;;;;;;;;;;;2216752;59;2187;-17
2023/03/02 03:11:40;;;;;;;;;;;;;;;;;;2216246;66;1438;-16
2023/03/02 03:14:12;;;;;;;;;;;;;;;;;;2217840;66;1601;-16
2023/03/02 03:16:43;;;;;;;;;;;;;;;;;;2215988;66;1117;-16
2023/03/02 03:19:30;;;;;;;;;;;;;;;;;;2216996;66;1925;-16
2023/03/02 03:22:00;;;;;;;;;;;;;;;;;;2216054;66;1435;-16
2023/03/02 03:24:32;;;;;;;;;;;;;;;;;;2217719;66;1088;-16
2023/03/02 03:27:09;;;;;;;;;;;;;;;;;;2215686;66;1483;-16
2023/03/02 03:29:41;;;;;;;;;;;;;;;;;;2215882;66;1422;-17
2023/03/02 03:32:11;;;;;;;;;;;;;;;;;;2215860;59;2199;-16
2023/03/02 03:34:42;;;;;;;;;;;;;;;;;;2216165;66;1491;-16
2023/03/02 03:37:14;;;;;;;;;;;;;;;;;;2216072;66;1473;-16
2023/03/02 03:39:44;;;;;;;;;;;;;;;;;;2216155;66;1917;-16
2023/03/02 03:42:14;;;;;;;;;;;;;;;;;;2216344;59;1457;-16
2023/03/02 03:44:45;;;;;;;;;;;;;;;;;;2214891;59;2176;-16
2023/03/02 03:47:15;;;;;;;;;;;;;;;;;;2215636;59;2224;-16
2023/03/02 03:49:45;;;;;;;;;;;;;;;;;;2211742;67;2276;-16
2023/03/02 03:52:16;;;;;;;;;;;;;;;;;;2215995;59;2255;-16
2023/03/02 03:54:46;;;;;;;;;;;;;;;;;;2216060;59;2070;-17
2023/03/02 03:57:16;;;;;;;;;;;;;;;;;;2215983;66;1121;-16
2023/03/02 03:59:47;;;;;;;;;;;;;;;;;;2215556;59;2169;-16
2023/03/02 04:02:17;;;;;;;;;;;;;;;;;;2215434;66;1381;-16
2023/03/02 04:04:47;;;;;;;;;;;;;;;;;;2216410;66;1406;-16
2023/03/02 04:07:18;;;;;;;;;;;;;;;;;;2215272;66;1795;-16
2023/03/02 04:09:48;;;;;;;;;;;;;;;;;;2217563;59;1174;-16
2023/03/02 04:12:18;;;;;;;;;;;;;;;;;;2216368;66;1283;-16
2023/03/02 04:14:49;;;;;;;;;;;;;;;;;;2216119;66;1307;-16
2023/03/02 04:17:22;;;;;;;;;;;;;;;;;;2216340;66;1194;-16
2023/03/02 04:20:00;;;;;;;;;;;;;;;;;;2215475;66;1937;-16
2023/03/02 04:22:30;;;;;;;;;;;;;;;;;;2216953;66;2062;-16
2023/03/02 04:25:01;;;;;;;;;;;;;;;;;;2216550;66;1993;-16
2023/03/02 04:27:31;;;;;;;;;;;;;;;;;;2216043;66;1154;-16
2023/03/02 04:30:02;;;;;;;;;;;;;;;;;;2219063;66;1497;-16
2023/03/02 04:32:32;;;;;;;;;;;;;;;;;;2216394;66;1184;-16
2023/03/02 04:35:03;;;;;;;;;;;;;;;;;;2219108;66;2424;-16
2023/03/02 04:37:34;;;;;;;;;;;;;;;;;;2216488;66;1679;-16
2023/03/02 04:40:08;;;;;;;;;;;;;;;;;;2216505;66;1980;-16
2023/03/02 04:42:38;;;;;;;;;;;;;;;;;;2217118;66;1217;-16
2023/03/02 04:45:09;;;;;;;;;;;;;;;;;;2217104;66;1190;-16
2023/03/02 04:47:40;;;;;;;;;;;;;;;;;;2215404;66;1166;-16
2023/03/02 04:50:12;;;;;;;;;;;;;;;;;;2216545;66;1608;-16
2023/03/02 04:52:42;;;;;;;;;;;;;;;;;;2216776;66;1297;-16
2023/03/02 04:55:20;;;;;;;;;;;;;;;;;;2216610;66;1695;-16
2023/03/02 04:57:51;;;;;;;;;;;;;;;;;;2215093;66;1312;-16
2023/03/02 05:00:21;;;;;;;;;;;;;;;;;;2216578;66;1921;-16
2023/03/02 05:02:51;;;;;;;;;;;;;;;;;;2217204;66;1395;-16
2023/03/02 05:05:23;;;;;;;;;;;;;;;;;;2216381;66;1727;-16
2023/03/02 05:07:53;;;;;;;;;;;;;;;;;;2215213;66;1389;-20
2023/03/02 05:10:24;;;;;;;;;;;;;;;;;;2218060;53;2007;-22
2023/03/02 05:13:01;;;;;;;;;;;;;;;;;;2216576;66;1677;-23
2023/03/02 05:15:35;;;;;;;;;;;;;;;;;;2215336;66;1267;-23
2023/03/02 05:18:07;;;;;;;;;;;;;;;;;;2215317;66;1769;-23
2023/03/02 05:20:40;;;;;;;;;;;;;;;;;;2215313;66;1982;-23
2023/03/02 05:23:12;;;;;;;;;;;;;;;;;;2213938;66;1147;-23
2023/03/02 05:25:42;;;;;;;;;;;;;;;;;;2213482;66;1678;-23
2023/03/02 05:28:12;;;;;;;;;;;;;;;;;;2212908;66;1207;-23
2023/03/02 05:30:43;;;;;;;;;;;;;;;;;;2211926;66;1383;-23
2023/03/02 05:33:13;;;;;;;;;;;;;;;;;;2215135;66;1967;-23
2023/03/02 05:35:44;;;;;;;;;;;;;;;;;;2212103;66;1983;-23
2023/03/02 05:38:14;;;;;;;;;;;;;;;;;;2212223;66;1195;-23
2023/03/02 05:40:45;;;;;;;;;;;;;;;;;;2212302;59;1923;-23
2023/03/02 05:43:17;;;;;;;;;;;;;;;;;;2212854;66;2292;-23
2023/03/02 05:45:47;;;;;;;;;;;;;;;;;;2211735;66;1129;-23
2023/03/02 05:48:18;;;;;;;;;;;;;;;;;;2213855;66;1809;-23
2023/03/02 05:50:48;;;;;;;;;;;;;;;;;;2212923;66;1935;-23
2023/03/02 05:53:18;;;;;;;;;;;;;;;;;;2213426;59;2327;-23
2023/03/02 05:55:49;;;;;;;;;;;;;;;;;;2212198;66;1649;-23
2023/03/02 05:58:19;;;;;;;;;;;;;;;;;;2211548;66;1756;-23
2023/03/02 06:00:50;;;;;;;;;;;;;;;;;;2211868;66;1935;-25
2023/03/02 06:03:20;;;;;;;;;;;;;;;;;;2213198;66;1936;-25
2023/03/02 06:05:51;;;;;;;;;;;;;;;;;;2214206;66;1806;-25
2023/03/02 06:08:21;;;;;;;;;;;;;;;;;;2212305;66;2171;-23
2023/03/02 06:10:55;;;;;;;;;;;;;;;;;;2212656;59;1763;-23
2023/03/02 06:13:25;;;;;;;;;;;;;;;;;;2215169;66;1576;-23
2023/03/02 06:15:56;;;;;;;;;;;;;;;;;;2211510;66;1351;-23
2023/03/02 06:18:26;;;;;;;;;;;;;;;;;;2212194;66;1251;-23
2023/03/02 06:20:56;;;;;;;;;;;;;;;;;;2213292;66;1931;-23
2023/03/02 06:23:26;;;;;;;;;;;;;;;;;;2212878;66;1808;-23
2023/03/02 06:25:58;;;;;;;;;;;;;;;;;;2212080;66;1805;-23
2023/03/02 06:28:31;;;;;;;;;;;;;;;;;;2213202;66;1309;-23
2023/03/02 06:31:01;;;;;;;;;;;;;;;;;;2212465;66;1739;-23
2023/03/02 06:33:32;;;;;;;;;;;;;;;;;;2212734;58;1205;-23
2023/03/02 06:36:02;;;;;;;;;;;;;;;;;;2211652;66;1296;-23
2023/03/02 06:38:32;;;;;;;;;;;;;;;;;;2211124;66;1100;-23
2023/03/02 06:41:03;;;;;;;;;;;;;;;;;;2211783;66;2040;-24
2023/03/02 06:43:36;;;;;;;;;;;;;;;;;;2214125;66;1782;-23
2023/03/02 06:46:07;;;;;;;;;;;;;;;;;;2211679;66;1310;-23
2023/03/02 06:48:37;;;;;;;;;;;;;;;;;;2211285;66;1380;-23
2023/03/02 06:51:07;;;;;;;;;;;;;;;;;;2212328;66;1778;-23
2023/03/02 06:53:37;;;;;;;;;;;;;;;;;;2212152;66;1136;-23
2023/03/02 06:56:08;;;;;;;;;;;;;;;;;;2212011;66;1384;-23
2023/03/02 06:58:38;;;;;;;;;;;;;;;;;;2211368;66;1538;-23
2023/03/02 07:01:08;;;;;;;;;;;;;;;;;;2212579;66;1925;-23
2023/03/02 07:03:39;;;;;;;;;;;;;;;;;;2212180;66;1654;-23
2023/03/02 07:06:11;;;;;;;;;;;;;;;;;;2211139;66;1117;-23
2023/03/02 07:08:41;;;;;;;;;;;;;;;;;;2211861;58;1168;-23
2023/03/02 07:11:11;;;;;;;;;;;;;;;;;;2211763;59;1225;-23
2023/03/02 07:13:41;;;;;;;;;;;;;;;;;;2213373;66;1816;-23
2023/03/02 07:16:13;;;;;;;;;;;;;;;;;;2215051;66;1307;-23
2023/03/02 07:18:43;;;;;;;;;;;;;;;;;;2215205;59;2267;-23
2023/03/02 07:21:13;;;;;;;;;;;;;;;;;;2214171;66;1994;-23
2023/03/02 07:23:46;;;;;;;;;;;;;;;;;;2210551;66;1724;-23
2023/03/02 07:26:16;;;;;;;;;;;;;;;;;;2210638;66;1972;-23
2023/03/02 07:28:50;;;;;;;;;;;;;;;;;;2211660;59;1166;-23
2023/03/02 07:31:20;;;;;;;;;;;;;;;;;;2212697;66;1277;-25
2023/03/02 07:33:50;;;;;;;;;;;;;;;;;;2211716;59;1591;-25
2023/03/02 07:36:20;;;;;;;;;;;;;;;;;;2212113;66;1426;-23
2023/03/02 07:38:51;;;;;;;;;;;;;;;;;;2212533;66;1231;-23
2023/03/02 07:41:21;;;;;;;;;;;;;;;;;;2213226;66;1971;-23
2023/03/02 07:43:51;;;;;;;;;;;;;;;;;;2212528;66;1390;-23
2023/03/02 07:46:22;;;;;;;;;;;;;;;;;;2211101;59;1128;-25
2023/03/02 07:48:52;;;;;;;;;;;;;;;;;;2212183;59;1178;-23
2023/03/02 07:51:23;;;;;;;;;;;;;;;;;;2212386;66;1233;-23
2023/03/02 07:53:53;;;;;;;;;;;;;;;;;;2212147;59;1688;-23
2023/03/02 07:56:23;;;;;;;;;;;;;;;;;;2211233;66;1121;-23
2023/03/02 07:58:53;;;;;;;;;;;;;;;;;;2212211;66;1342;-23
2023/03/02 08:01:24;;;;;;;;;;;;;;;;;;2212371;66;1996;-23
2023/03/02 08:03:54;;;;;;;;;;;;;;;;;;2211423;59;1838;-23
2023/03/02 08:06:24;;;;;;;;;;;;;;;;;;2211508;66;1737;-23
2023/03/02 08:08:54;;;;;;;;;;;;;;;;;;2211778;66;1314;-23
2023/03/02 08:11:27;;;;;;;;;;;;;;;;;;2211729;59;1349;-23
2023/03/02 08:13:59;;;;;;;;;;;;;;;;;;2211779;59;1744;-23
2023/03/02 08:16:29;;;;;;;;;;;;;;;;;;2212024;66;1133;-23
2023/03/02 08:18:59;;;;;;;;;;;;;;;;;;2211872;66;1454;-23
2023/03/02 08:21:30;;;;;;;;;;;;;;;;;;2212970;66;2011;-23
2023/03/02 08:24:00;;;;;;;;;;;;;;;;;;2212146;66;1343;-23
2023/03/02 08:26:30;;;;;;;;;;;;;;;;;;2213133;66;1757;-23
2023/03/02 08:29:01;;;;;;;;;;;;;;;;;;2212589;66;1916;-23
2023/03/02 08:31:31;;;;;;;;;;;;;;;;;;2215313;66;1379;-23
2023/03/02 08:34:01;;;;;;;;;;;;;;;;;;2211938;66;1379;-23
2023/03/02 08:36:31;;;;;;;;;;;;;;;;;;2212339;59;1729;-23
2023/03/02 08:39:02;;;;;;;;;;;;;;;;;;2215398;66;1736;-23
2023/03/02 08:41:33;;;;;;;;;;;;;;;;;;2212494;66;2008;-23
2023/03/02 08:44:03;;;;;;;;;;;;;;;;;;2212408;59;1520;-23
2023/03/02 08:46:33;;;;;;;;;;;;;;;;;;2215369;66;1855;-23
2023/03/02 08:49:04;;;;;;;;;;;;;;;;;;2213162;66;1295;-23
2023/03/02 08:51:34;;;;;;;;;;;;;;;;;;2212784;66;1778;-23
2023/03/02 08:54:04;;;;;;;;;;;;;;;;;;2212646;66;1170;-23
2023/03/02 08:56:36;;;;;;;;;;;;;;;;;;2212840;66;1188;-23
2023/03/02 08:59:09;;;;;;;;;;;;;;;;;;2212337;59;1890;-23
2023/03/02 09:01:40;;;;;;;;;;;;;;;;;;2213159;66;2008;-23
2023/03/02 09:04:10;;;;;;;;;;;;;;;;;;2212018;66;1745;-23
2023/03/02 09:06:41;;;;;;;;;;;;;;;;;;2213973;66;1248;-23
2023/03/02 09:09:13;;;;;;;;;;;;;;;;;;2211798;66;1278;-23
2023/03/02 09:11:43;;;;;;;;;;;;;;;;;;2211734;59;1371;-23
2023/03/02 09:14:14;;;;;;;;;;;;;;;;;;2213584;66;1774;-23
2023/03/02 09:16:45;;;;;;;;;;;;;;;;;;2212219;66;1202;-23
2023/03/02 09:19:15;;;;;;;;;;;;;;;;;;2212639;66;1928;-23
2023/03/02 09:21:45;;;;;;;;;;;;;;;;;;2212291;66;1150;-23
2023/03/02 09:24:18;;;;;;;;;;;;;;;;;;2211855;66;1283;-23
2023/03/02 09:26:49;;;;;;;;;;;;;;;;;;2212100;66;1927;-23
2023/03/02 09:29:19;;;;;;;;;;;;;;;;;;2211605;66;1176;-23
2023/03/02 09:31:49;;;;;;;;;;;;;;;;;;2215246;66;1449;-23
2023/03/02 09:34:20;;;;;;;;;;;;;;;;;;2211630;66;1131;-23
2023/03/02 09:36:50;;;;;;;;;;;;;;;;;;2212300;66;1920;-23
2023/03/02 09:39:20;;;;;;;;;;;;;;;;;;2212324;66;1992;-23
2023/03/02 09:42:09;;;;;;;;;;;;;;;;;;2214931;66;1902;-23
2023/03/02 09:44:48;;;;;;;;;;;;;;;;;;2212097;66;1432;-23
2023/03/02 09:47:33;;;;;;;;;;;;;;;;;;2212574;66;1341;-23
2023/03/02 09:50:20;;;;;;;;;;;;;;;;;;2212329;66;1599;-23
2023/03/02 09:53:09;;;;;;;;;;;;;;;;;;2212549;59;1388;-23
2023/03/02 09:55:39;;;;;;;;;;;;;;;;;;2212265;59;1780;-23
2023/03/02 09:58:18;;;;;;;;;;;;;;;;;;2211874;59;2265;-23
2023/03/02 10:00:49;;;;;;;;;;;;;;;;;;2212157;66;2000;-23
2023/03/02 10:03:26;;;;;;;;;;;;;;;;;;2211516;67;1087;-23
2023/03/02 10:05:57;;;;;;;;;;;;;;;;;;2212370;66;1810;-23
2023/03/02 10:08:28;;;;;;;;;;;;;;;;;;2213577;59;1730;-23
2023/03/02 10:11:19;;;;;;;;;;;;;;;;;;2215698;58;1966;-23
2023/03/02 10:13:52;;;;;;;;;;;;;;;;;;2212363;66;1845;-23
2023/03/02 10:16:41;;;;;;;;;;;;;;;;;;2212796;66;1839;-23
2023/03/02 10:19:11;;;;;;;;;;;;;;;;;;2212626;66;1392;-23
2023/03/02 10:21:46;;;;;;;;;;;;;;;;;;2211880;66;1941;-23
2023/03/02 10:24:28;;;;;;;;;;;;;;;;;;2212001;66;1348;-23
2023/03/02 10:27:08;;;;;;;;;;;;;;;;;;2212336;66;1125;-23
2023/03/02 10:29:47;;;;;;;;;;;;;;;;;;2212766;66;1786;-23
2023/03/02 10:32:19;;;;;;;;;;;;;;;;;;2211102;66;1379;-23
2023/03/02 10:34:51;;;;;;;;;;;;;;;;;;2212045;66;1769;-23
2023/03/02 10:37:24;;;;;;;;;;;;;;;;;;2212285;66;1128;-23
2023/03/02 10:39:54;;;;;;;;;;;;;;;;;;2211891;66;1924;-23
2023/03/02 10:42:30;;;;;;;;;;;;;;;;;;2211712;66;1647;-23
2023/03/02 10:45:18;;;;;;;;;;;;;;;;;;2211316;66;1831;-23
2023/03/02 10:47:58;;;;;;;;;;;;;;;;;;2211979;66;1094;-23
2023/03/02 10:50:29;;;;;;;;;;;;;;;;;;2211942;66;1635;-23
2023/03/02 10:53:00;;;;;;;;;;;;;;;;;;2214007;66;1527;-23
2023/03/02 10:55:31;;;;;;;;;;;;;;;;;;2212380;66;1226;-23
2023/03/02 10:58:14;;;;;;;;;;;;;;;;;;2212182;66;1356;-23
2023/03/02 11:00:54;;;;;;;;;;;;;;;;;;2212869;66;1934;-23
2023/03/02 11:03:24;;;;;;;;;;;;;;;;;;2211864;66;1615;-23
2023/03/02 11:05:55;;;;;;;;;;;;;;;;;;2213152;66;1697;-23
2023/03/02 11:08:26;;;;;;;;;;;;;;;;;;2212863;66;1763;-23
2023/03/02 11:10:58;;;;;;;;;;;;;;;;;;2211575;59;1591;-22
2023/03/02 11:13:33;;;;;;;;;;;;;;;;;;2211355;66;1109;-22
2023/03/02 11:16:05;;;;;;;;;;;;;;;;;;2212100;66;1428;-23
2023/03/02 11:18:38;;;;;;;;;;;;;;;;;;2212062;66;2169;-22
2023/03/02 11:21:08;;;;;;;;;;;;;;;;;;2211603;59;1929;-23
2023/03/02 11:23:54;;;;;;;;;;;;;;;;;;2211630;59;2156;-22
2023/03/02 11:26:27;;;;;;;;;;;;;;;;;;2210846;59;1896;-22
2023/03/02 11:29:03;;;;;;;;;;;;;;;;;;2213295;66;1249;-22
2023/03/02 11:31:39;;;;;;;;;;;;;;;;;;2211203;67;1535;-22
2023/03/02 11:34:31;;;;;;;;;;;;;;;;;;2212161;59;1725;-22
2023/03/02 11:37:21;;;;;;;;;;;;;;;;;;2211582;59;2059;-22
2023/03/02 11:40:01;;;;;;;;;;;;;;;;;;2212002;66;1931;-22
2023/03/02 11:42:43;;;;;;;;;;;;;;;;;;2211080;66;1179;-22
2023/03/02 11:45:13;;;;;;;;;;;;;;;;;;2211588;66;1124;-22
2023/03/02 11:47:46;;;;;;;;;;;;;;;;;;2212624;66;2002;-22
2023/03/02 11:50:16;;;;;;;;;;;;;;;;;;2212366;66;1794;-22
2023/03/02 11:52:50;;;;;;;;;;;;;;;;;;2212332;66;1304;-22
2023/03/02 11:55:22;;;;;;;;;;;;;;;;;;2212264;66;1104;-22
2023/03/02 11:57:58;;;;;;;;;;;;;;;;;;2212696;66;1855;-22
2023/03/02 12:00:31;;;;;;;;;;;;;;;;;;2212033;66;1941;-22
2023/03/02 12:03:06;;;;;;;;;;;;;;;;;;2211235;59;2043;-22
2023/03/02 12:05:38;;;;;;;;;;;;;;;;;;2212907;66;1235;-22
2023/03/02 12:08:17;;;;;;;;;;;;;;;;;;2214078;66;1135;-24
2023/03/02 12:10:59;;;;;;;;;;;;;;;;;;2214860;59;1408;-32
2023/03/02 12:13:34;;;;;;;;;;;;;;;;;;2211445;59;1924;-22
2023/03/02 12:16:33;;;;;;;;;;;;;;;;;;2212379;59;1887;-22
2023/03/02 12:19:27;;;;;;;;;;;;;;;;;;2214288;59;2066;-22
2023/03/02 12:21:58;;;;;;;;;;;;;;;;;;2211690;66;1467;-22
2023/03/02 12:24:30;;;;;;;;;;;;;;;;;;2212370;59;2240;-22
2023/03/02 12:27:00;;;;;;;;;;;;;;;;;;2213015;66;1249;-22
2023/03/02 12:29:41;;;;;;;;;;;;;;;;;;2212621;66;1683;-22
2023/03/02 12:32:20;;;;;;;;;;;;;;;;;;2211768;59;2118;-22
2023/03/02 12:34:52;;;;;;;;;;;;;;;;;;2212872;66;1330;-22
2023/03/02 12:37:24;;;;;;;;;;;;;;;;;;2212125;66;1697;-22
2023/03/02 12:40:16;;;;;;;;;;;;;;;;;;2212061;66;1995;-22
2023/03/02 12:43:11;;;;;;;;;;;;;;;;;;2211934;59;1751;-22
2023/03/02 12:45:44;;;;;;;;;;;;;;;;;;2212589;66;1219;-22
2023/03/02 12:48:27;;;;;;;;;;;;;;;;;;2215874;66;1495;-22
2023/03/02 12:50:59;;;;;;;;;;;;;;;;;;2212385;66;1687;-23
2023/03/02 12:53:29;;;;;;;;;;;;;;;;;;2211401;66;1044;-23
2023/03/02 12:56:00;;;;;;;;;;;;;;;;;;2212697;59;2223;-23
2023/03/02 12:58:31;;;;;;;;;;;;;;;;;;2212527;66;1194;-23
2023/03/02 13:01:02;;;;;;;;;;;;;;;;;;2210427;66;1931;-23
2023/03/02 13:03:32;;;;;;;;;;;;;;;;;;2212942;66;1091;-23
2023/03/02 13:06:03;;;;;;;;;;;;;;;;;;2212143;66;1767;-23
2023/03/02 13:08:33;;;;;;;;;;;;;;;;;;2213233;59;1108;-23
2023/03/02 13:11:04;;;;;;;;;;;;;;;;;;2211529;59;1742;-23
2023/03/02 13:13:37;;;;;;;;;;;;;;;;;;2212374;59;1302;-23
2023/03/02 13:16:22;;;;;;;;;;;;;;;;;;2213574;66;1139;-23
2023/03/02 13:19:00;;;;;;;;;;;;;;;;;;2212191;66;1370;-23
2023/03/02 13:21:36;;;;;;;;;;;;;;;;;;2212008;66;1951;-23
2023/03/02 13:24:25;;;;;;;;;;;;;;;;;;2212058;59;1916;-23
2023/03/02 13:26:57;;;;;;;;;;;;;;;;;;2212280;66;1136;-23
2023/03/02 13:29:30;;;;;;;;;;;;;;;;;;2211066;67;1893;-23
2023/03/02 13:32:19;;;;;;;;;;;;;;;;;;2211279;66;1269;-23
2023/03/02 13:34:54;;;;;;;;;;;;;;;;;;2211868;66;1999;-23
2023/03/02 13:37:33;;;;;;;;;;;;;;;;;;2214044;66;1299;-23
2023/03/02 13:40:23;;;;;;;;;;;;;;;;;;2211492;66;1931;-23
2023/03/02 13:42:53;;;;;;;;;;;;;;;;;;2212564;66;1961;-23
2023/03/02 13:45:25;;;;;;;;;;;;;;;;;;2212466;66;1130;-23
2023/03/02 13:47:56;;;;;;;;;;;;;;;;;;2212657;66;1616;-23
2023/03/02 13:50:30;;;;;;;;;;;;;;;;;;2213923;66;1231;-23
2023/03/02 13:53:04;;;;;;;;;;;;;;;;;;2212347;66;1356;-23
2023/03/02 13:55:34;;;;;;;;;;;;;;;;;;2214818;66;1077;-23
2023/03/02 13:58:08;;;;;;;;;;;;;;;;;;2212463;59;1290;-23
2023/03/02 14:00:38;;;;;;;;;;;;;;;;;;2210789;66;1996;-23
2023/03/02 14:03:26;;;;;;;;;;;;;;;;;;2215026;58;1931;-23
2023/03/02 14:05:57;;;;;;;;;;;;;;;;;;2211983;58;2196;-23
2023/03/02 14:08:27;;;;;;;;;;;;;;;;;;2212260;59;1945;-23
2023/03/02 14:10:59;;;;;;;;;;;;;;;;;;2214188;58;1202;-23
2023/03/02 14:13:51;;;;;;;;;;;;;;;;;;2212111;66;1358;-23
2023/03/02 14:16:23;;;;;;;;;;;;;;;;;;2212913;66;1119;-23
2023/03/02 14:18:55;;;;;;;;;;;;;;;;;;2212227;66;1267;-23
2023/03/02 14:21:25;;;;;;;;;;;;;;;;;;2211580;66;1939;-23
2023/03/02 14:23:57;;;;;;;;;;;;;;;;;;2212535;66;1392;-23
2023/03/02 14:26:27;;;;;;;;;;;;;;;;;;2214649;66;1488;-23
2023/03/02 14:28:59;;;;;;;;;;;;;;;;;;2211692;66;1559;-23
2023/03/02 14:31:29;;;;;;;;;;;;;;;;;;2211765;66;1213;-23
2023/03/02 14:33:59;;;;;;;;;;;;;;;;;;2214895;66;1690;-23
2023/03/02 14:36:31;;;;;;;;;;;;;;;;;;2213911;66;1866;-23
2023/03/02 14:39:04;;;;;;;;;;;;;;;;;;2212435;66;1281;-23
2023/03/02 14:41:37;;;;;;;;;;;;;;;;;;2211680;66;1995;-23
2023/03/02 14:44:09;;;;;;;;;;;;;;;;;;2213896;66;1095;-23
2023/03/02 14:46:39;;;;;;;;;;;;;;;;;;2212817;66;1324;-23
2023/03/02 14:49:09;;;;;;;;;;;;;;;;;;2211328;59;1894;-23
2023/03/02 14:51:41;;;;;;;;;;;;;;;;;;2212098;59;1982;-23
2023/03/02 14:54:14;;;;;;;;;;;;;;;;;;2212357;66;1549;-23
2023/03/02 14:56:45;;;;;;;;;;;;;;;;;;2212770;66;1725;-23
2023/03/02 14:59:15;;;;;;;;;;;;;;;;;;2211689;66;1427;-23
2023/03/02 15:01:45;;;;;;;;;;;;;;;;;;2214527;59;1943;-23
2023/03/02 15:04:15;;;;;;;;;;;;;;;;;;2212856;66;1363;-23
2023/03/02 15:06:46;;;;;;;;;;;;;;;;;;2213125;66;1097;-23
2023/03/02 15:09:16;;;;;;;;;;;;;;;;;;2211475;66;1371;-23
2023/03/02 15:11:49;;;;;;;;;;;;;;;;;;2211652;59;1415;-23
2023/03/02 15:14:19;;;;;;;;;;;;;;;;;;2212326;66;1556;-23
2023/03/02 15:16:50;;;;;;;;;;;;;;;;;;2211872;66;1243;-23
2023/03/02 15:19:20;;;;;;;;;;;;;;;;;;2209254;67;1245;-23
2023/03/02 15:21:51;;;;;;;;;;;;;;;;;;2212692;66;2183;-23
2023/03/02 15:24:22;;;;;;;;;;;;;;;;;;2212028;66;1049;-23
2023/03/02 15:26:52;;;;;;;;;;;;;;;;;;2211529;66;1691;-23
2023/03/02 15:29:22;;;;;;;;;;;;;;;;;;2211810;66;1321;-22
2023/03/02 15:31:52;;;;;;;;;;;;;;;;;;2211708;59;1220;-22
2023/03/02 15:34:23;;;;;;;;;;;;;;;;;;2212729;66;1387;-22
2023/03/02 15:36:53;;;;;;;;;;;;;;;;;;2211725;59;1276;-22
2023/03/02 15:39:23;;;;;;;;;;;;;;;;;;2210939;66;1252;-22
2023/03/02 15:41:53;;;;;;;;;;;;;;;;;;2213116;66;1932;-22
2023/03/02 15:44:24;;;;;;;;;;;;;;;;;;2212960;66;1141;-22
2023/03/02 15:46:55;;;;;;;;;;;;;;;;;;2212057;66;1334;-22
2023/03/02 15:49:28;;;;;;;;;;;;;;;;;;2210858;59;1171;-22
2023/03/02 15:51:58;;;;;;;;;;;;;;;;;;2211970;59;1692;-22
2023/03/02 15:54:28;;;;;;;;;;;;;;;;;;2213952;59;1930;-22
2023/03/02 15:57:02;;;;;;;;;;;;;;;;;;2212441;66;1999;-22
2023/03/02 15:59:32;;;;;;;;;;;;;;;;;;2211756;66;1937;-22
2023/03/02 16:02:02;;;;;;;;;;;;;;;;;;2213565;66;1210;-22
2023/03/02 16:04:32;;;;;;;;;;;;;;;;;;2212771;66;1457;-22
2023/03/02 16:07:03;;;;;;;;;;;;;;;;;;2211438;59;1418;-22
2023/03/02 16:09:33;;;;;;;;;;;;;;;;;;2212899;66;1136;-22
2023/03/02 16:12:03;;;;;;;;;;;;;;;;;;2212118;59;1696;-22
2023/03/02 16:14:34;;;;;;;;;;;;;;;;;;2212752;66;1112;-22
2023/03/02 16:17:04;;;;;;;;;;;;;;;;;;2211638;66;1182;-22
2023/03/02 16:19:36;;;;;;;;;;;;;;;;;;2211085;66;1943;-22
2023/03/02 16:22:06;;;;;;;;;;;;;;;;;;2211708;66;1376;-23
2023/03/02 16:24:36;;;;;;;;;;;;;;;;;;2212752;66;1097;-22
2023/03/02 16:27:06;;;;;;;;;;;;;;;;;;2211123;66;1285;-22
2023/03/02 16:29:37;;;;;;;;;;;;;;;;;;2213381;66;1197;-22
2023/03/02 16:32:07;;;;;;;;;;;;;;;;;;2211234;59;1632;-22
2023/03/02 16:34:37;;;;;;;;;;;;;;;;;;2211700;59;2548;-22
2023/03/02 16:37:08;;;;;;;;;;;;;;;;;;2211694;59;1628;-22
2023/03/02 16:39:38;;;;;;;;;;;;;;;;;;2211574;59;2043;-22
2023/03/02 16:42:08;;;;;;;;;;;;;;;;;;2212527;66;1504;-22
2023/03/02 16:44:38;;;;;;;;;;;;;;;;;;2213738;66;1111;-22
2023/03/02 16:47:09;;;;;;;;;;;;;;;;;;2212047;59;2014;-22
2023/03/02 16:49:39;;;;;;;;;;;;;;;;;;2212390;59;1707;-22
2023/03/02 16:52:09;;;;;;;;;;;;;;;;;;2213642;66;1280;-22
2023/03/02 16:54:39;;;;;;;;;;;;;;;;;;2212561;66;1088;-22
2023/03/02 16:57:09;;;;;;;;;;;;;;;;;;2212444;66;1572;-22
2023/03/02 16:59:40;;;;;;;;;;;;;;;;;;2211409;66;1936;-22
2023/03/02 17:02:11;;;;;;;;;;;;;;;;;;2213148;66;1757;-22
2023/03/02 17:04:41;;;;;;;;;;;;;;;;;;2212792;66;1079;-22
2023/03/02 17:07:11;;;;;;;;;;;;;;;;;;2212056;66;1782;-22
2023/03/02 17:09:41;;;;;;;;;;;;;;;;;;2212166;66;1118;-22
2023/03/02 17:12:11;;;;;;;;;;;;;;;;;;2213092;59;1254;-23
2023/03/02 17:14:42;;;;;;;;;;;;;;;;;;2213670;66;1180;-23
2023/03/02 17:17:12;;;;;;;;;;;;;;;;;;2212973;66;1597;-23
2023/03/02 17:19:42;;;;;;;;;;;;;;;;;;2212057;66;1934;-23
2023/03/02 17:22:12;;;;;;;;;;;;;;;;;;2215023;66;1232;-24
2023/03/02 17:24:43;;;;;;;;;;;;;;;;;;2213103;66;1468;-23
2023/03/02 17:27:13;;;;;;;;;;;;;;;;;;2211807;66;1278;-23
2023/03/02 17:29:43;;;;;;;;;;;;;;;;;;2212233;66;1233;-23
2023/03/02 17:32:13;;;;;;;;;;;;;;;;;;2212665;66;1257;-23
2023/03/02 17:34:43;;;;;;;;;;;;;;;;;;2213647;66;1473;-23
2023/03/02 17:37:16;;;;;;;;;;;;;;;;;;2212356;66;1185;-23
2023/03/02 17:39:48;;;;;;;;;;;;;;;;;;2212737;66;1978;-23